Flight Track Log - Related Links

Times and Time Zones

All times are in EDT time to prevent confusion due to time zone crossing. See the SWA2425 flight status page for this flight to view local times or setup timezone preferences in your user account.

Time Position Orientation Groundspeed Altitude Reporting Facility
EDT Latitude Longitude Course Direction KTS MPH feet Rate Location/Type
Sat 07:23:00 AM 42.9563 -79.4056 255° West  Level Estimated
Sat 07:23:55 AM 43.1311 -77.6650 262° West 148 170 1,400  Level Cleveland Center
Sat 07:24:00 AM 42.9437 -79.5291 262° West  Level Estimated
Sat 07:24:13 AM 43.1464 -77.6631 North 165 190 2,000  Level Cleveland Center
Sat 07:24:57 AM 43.1589 -77.7036 293° West 220 253 3,000 1,869 Climbing Cleveland Center
Sat 07:25:00 AM 42.9310 -79.6525 262° West  Level Estimated
Sat 07:25:14 AM 43.1472 -77.7300 239° Southwest 227 261 3,900  Level Cleveland Center
Sat 07:25:58 AM 43.1122 -77.7575 210° Southwest 231 266 5,100 2,743 Climbing Cleveland Center
Sat 07:26:00 AM 42.9181 -79.7759 262° West  Level Estimated
Sat 07:26:59 AM 43.0339 -77.7711 187° South 276 318 8,700  Level Cleveland Center
Sat 07:27:00 AM 42.9050 -79.8992 262° West  Level Estimated
Sat 07:28:00 AM 42.9444 -77.7797 184° South 329 379 10,000  Level Cleveland Center
Sat 07:28:00 AM 42.8919 -80.0225 262° West  Level Estimated
Sat 07:29:00 AM 42.8786 -80.1457 262° West  Level Estimated
Sat 07:29:01 AM 42.8506 -77.8003 189° South 346 398 11,600  Level Cleveland Center
Sat 07:30:02 AM 42.7381 -77.8222 188° South 360 414 14,700 2,902 Climbing Cleveland Center
Sat 07:31:03 AM 42.6925 -77.9422 243° Southwest 373 429 17,500 2,683 Climbing Cleveland Center
Sat 07:32:05 AM 42.6517 -78.0775 248° West 382 440 20,200 2,488 Climbing Cleveland Center
Sat 07:33:06 AM 42.6108 -78.2167 248° West 393 452 22,600 2,311 Climbing Cleveland Center
Sat 07:34:07 AM 42.5694 -78.3597 249° West 406 467 24,900 2,115 Climbing Cleveland Center
Sat 07:35:08 AM 42.5253 -78.5064 248° West 416 479 26,900 1,918 Climbing Cleveland Center
Sat 07:36:09 AM 42.4808 -78.6589 248° West 433 498 28,800 2,066 Climbing Cleveland Center
Sat 07:37:10 AM 42.4342 -78.8067 247° West 432 497 31,100 2,164 Climbing Cleveland Center
Sat 07:38:11 AM 42.3836 -78.9781 248° West 427 491 33,200 1,426 Climbing Cleveland Center
Sat 07:39:12 AM 42.3394 -79.1244 248° West 425 489 34,000 393 Climbing Cleveland Center
Sat 07:40:13 AM 42.2947 -79.2700 247° West 426 490 34,000  Level Cleveland Center
Sat 07:41:15 AM 42.2667 -79.4175 256° West 411 473 34,000  Level Cleveland Center
Sat 07:42:16 AM 42.2447 -79.5647 259° West 405 466 34,000  Level Cleveland Center
Sat 07:43:17 AM 42.2233 -79.7111 259° West 404 465 34,000  Level Cleveland Center
Sat 07:44:18 AM 42.2006 -79.8594 258° West 406 467 34,000  Level Cleveland Center
Sat 07:45:19 AM 42.1719 -80.0400 258° West 412 474 34,000  Level Cleveland Center
Sat 07:46:20 AM 42.1500 -80.1856 259° West 412 474 34,000  Level Cleveland Center
Sat 07:47:21 AM 42.1256 -80.3439 258° West 413 475 34,000  Level Cleveland Center
Sat 07:48:22 AM 42.1003 -80.5022 258° West 413 475 34,000  Level Cleveland Center
Sat 07:49:24 AM 42.0767 -80.6486 258° West 416 479 34,000  Level Cleveland Center
Sat 07:50:25 AM 42.0556 -80.7906 259° West 423 487 34,000  Level Cleveland Center
Sat 07:51:26 AM 42.0306 -80.9425 258° West 421 484 34,000  Level Cleveland Center
Sat 07:52:27 AM 42.0000 -81.1253 257° West 421 484 34,000  Level Cleveland Center
Sat 07:53:28 AM 41.9750 -81.2767 258° West 420 483 34,000  Level Cleveland Center
Sat 07:54:30 AM 41.9522 -81.4194 258° West 420 483 34,000  Level Cleveland Center
Sat 07:55:31 AM 41.9261 -81.5717 257° West 421 484 34,000  Level Cleveland Center
Sat 07:56:32 AM 41.9011 -81.7244 258° West 420 483 34,000  Level Cleveland Center
Sat 07:57:33 AM 41.8750 -81.8786 257° West 423 487 34,000  Level Cleveland Center
Sat 07:58:34 AM 41.8481 -82.0300 257° West 421 484 34,000  Level Cleveland Center
Sat 07:59:35 AM 41.8175 -82.2097 257° West 414 476 34,000  Level Cleveland Center
Sat 08:00:36 AM 41.7906 -82.3600 257° West 413 475 34,000  Level Cleveland Center
Sat 08:01:38 AM 41.7647 -82.5089 257° West 413 475 34,000  Level Cleveland Center
Sat 08:02:39 AM 41.7375 -82.6578 256° West 413 475 34,000  Level Cleveland Center
Sat 08:03:40 AM 41.7111 -82.8072 257° West 410 472 34,000  Level Cleveland Center
Sat 08:04:41 AM 41.6850 -82.9569 257° West 411 473 34,000  Level Cleveland Center
Sat 08:05:42 AM 41.6567 -83.1069 256° West 413 475 34,000  Level Cleveland Center
Sat 08:06:44 AM 41.6283 -83.2569 256° West 413 475 34,000  Level Cleveland Center
Sat 08:07:45 AM 41.6017 -83.4083 257° West 414 476 34,000  Level Cleveland Center
Sat 08:08:46 AM 41.5728 -83.5581 256° West 414 476 34,000  Level Cleveland Center
Sat 08:09:47 AM 41.5450 -83.7094 256° West 416 479 34,000  Level Cleveland Center
Sat 08:10:48 AM 41.5158 -83.8611 256° West 419 482 34,000  Level Cleveland Center
Sat 08:11:50 AM 41.4869 -84.0119 256° West 419 482 34,000  Level Cleveland Center
Sat 08:12:51 AM 41.4617 -84.1958 260° West 420 483 34,000  Level Cleveland Center
Sat 08:13:52 AM 41.4681 -84.3275 274° West 408 470 34,000 -541 Level Cleveland Center
Sat 08:14:53 AM 41.4733 -84.4783 273° West 408 470 32,900 -1,869 Descending Cleveland Center
Sat 08:15:54 AM 41.4792 -84.6297 273° West 408 470 30,200 -1,426 Descending Cleveland Center
Sat 08:16:55 AM 41.4869 -84.8150 273° West 418 481 30,000 -98 Descending Cleveland Center
Sat 08:17:56 AM 41.4931 -84.9728 273° West 420 483 30,000 -341 Level Cleveland Center
Sat 08:18:58 AM 41.4989 -85.1294 273° West 422 486 29,300 -1,415 Descending Cleveland Center
Sat 08:19:59 AM 41.5044 -85.2833 273° West 416 479 27,100 -2,115 Descending Cleveland Center
Sat 08:21:00 AM 41.5081 -85.4353 272° West 405 466 25,000 -2,066 Descending Cleveland Center
Sat 08:22:01 AM 41.5144 -85.5797 273° West 385 443 22,900 -2,164 Descending Cleveland Center
Sat 08:23:02 AM 41.5183 -85.7178 272° West 374 430 20,600 -1,869 Descending Cleveland Center
Sat 08:24:03 AM 41.5217 -85.8542 272° West 368 423 19,100 -1,672 Descending Cleveland Center
Sat 08:25:04 AM 41.5236 -85.9897 271° West 368 423 17,200 -1,902 Descending Cleveland Center
Sat 08:26:06 AM 41.5256 -86.1192 271° West 354 407 15,200 -1,951 Descending Cleveland Center
Sat 08:27:07 AM 41.5239 -86.2444 269° West 343 395 13,200 -1,770 Descending Cleveland Center
Sat 08:28:08 AM 41.5233 -86.3675 270° West 335 386 11,600 -1,257 Descending Cleveland Center
Sat 08:29:35 AM 41.5219 -86.5342 269° West 324 373 10,100 -608 Descending Chicago Center
Sat 08:30:36 AM 41.5211 -86.6525 270° West 321 369 10,100  Level Chicago Center
Sat 08:31:37 AM 41.5206 -86.7989 270° West 322 371 10,100 -344 Level Chicago Center
Sat 08:32:38 AM 41.5189 -86.9133 269° West 308 354 9,400 -1,073 Descending Chicago Center
Sat 08:33:40 AM 41.5178 -87.0208 269° West 293 337 7,900 -1,512 Descending Chicago Center
Sat 08:34:41 AM 41.5172 -87.1272 270° West 287 330 6,300 -1,279 Descending Chicago Center
Sat 08:35:42 AM 41.5206 -87.2378 272° West 279 321 5,300 -1,082 Descending Chicago Center
Sat 08:36:43 AM 41.5264 -87.3389 274° West 276 318 4,100 -585 Descending Chicago Center
Sat 08:37:45 AM 41.5317 -87.4372 274° West 270 311 4,100  Level Chicago Center
Sat 08:38:46 AM 41.5369 -87.5439 274° West 269 310 4,100  Level Chicago Center
Sat 08:39:47 AM 41.5422 -87.6436 274° West 269 310 4,100 -49 Level Chicago Center
Sat 08:40:48 AM 41.5483 -87.7439 275° West 269 310 4,000 -49 Descending Chicago Center
Sat 08:41:50 AM 41.5544 -87.8342 275° West 234 269 4,000 -98 Level Chicago Center
Sat 08:42:51 AM 41.5856 -87.9028 301° West 219 252 3,800 -492 Descending Chicago Center
Sat 08:43:52 AM 41.6419 -87.9197 347° North 220 253 3,000 -341 Descending Chicago Center
Sat 08:44:54 AM 41.6908 -87.8722 36° Northeast 221 254 3,100 -488 Climbing Chicago Center
Sat 08:45:55 AM 41.7278 -87.8250 44° Northeast 184 212 2,000 -885 Descending Chicago Center
Sat 08:46:56 AM 41.7575 -87.7869 44° Northeast 146 168 1,300 -585 Descending Chicago Center
Sat 08:47:58 AM 41.7847 -87.7525 43° Northeast 143 165 800 -484 Descending Chicago Center

Login

Don't have an account? Register now (free) for customized features, flight alerts, and more!